createdAt,value
2018-06-14T00:02:12.791Z,94419.71
2018-06-14T00:04:43.619Z,94412.08
2018-06-14T00:07:14.332Z,94401.95
2018-06-14T00:09:44.820Z,94389.27
2018-06-14T00:12:15.561Z,94396.03
2018-06-14T00:14:46.015Z,94402.67
2018-06-14T00:17:16.482Z,94397.46
2018-06-14T00:19:46.882Z,94396.38
2018-06-14T00:22:18.281Z,94391.53
2018-06-14T00:24:48.509Z,94387.02
2018-06-14T00:27:18.238Z,94391.00
2018-06-14T00:29:47.942Z,94378.33
2018-06-14T00:32:17.877Z,94387.76
2018-06-14T00:34:47.675Z,94385.36
2018-06-14T00:37:17.455Z,94395.44
2018-06-14T00:39:47.115Z,94390.58
2018-06-14T00:42:16.831Z,94397.33
2018-06-14T00:44:46.572Z,94404.36
2018-06-14T00:47:16.374Z,94387.76
2018-06-14T00:49:46.201Z,94393.69
2018-06-14T00:52:15.849Z,94388.69
2018-06-14T00:54:45.657Z,94380.38
2018-06-14T00:57:25.405Z,94388.64
2018-06-14T00:59:55.650Z,94401.13
2018-06-14T01:02:27.341Z,94401.03
2018-06-14T01:04:57.966Z,94404.02
2018-06-14T01:07:28.445Z,94412.41
2018-06-14T01:09:59.233Z,94412.64
2018-06-14T01:12:30.388Z,94408.05
2018-06-14T01:15:00.777Z,94397.45
2018-06-14T01:17:31.159Z,94400.06
2018-06-14T01:20:01.530Z,94401.92
2018-06-14T01:22:33.248Z,94400.02
2018-06-14T01:25:03.813Z,94403.70
2018-06-14T01:27:34.651Z,94399.13
2018-06-14T01:30:05.262Z,94405.03
2018-06-14T01:32:35.577Z,94407.13
2018-06-14T01:35:06.147Z,94407.39
2018-06-14T01:37:46.854Z,94395.36
2018-06-14T01:40:17.264Z,94401.03
2018-06-14T01:42:48.033Z,94399.59
2018-06-14T01:45:18.366Z,94407.88
2018-06-14T01:47:48.573Z,94403.23
2018-06-14T01:50:18.897Z,94398.95
2018-06-14T01:52:49.689Z,94405.91
2018-06-14T01:55:20.589Z,94408.94
2018-06-14T01:57:51.233Z,94393.12
2018-06-14T02:00:21.968Z,94393.84
2018-06-14T02:02:53.352Z,94400.45
2018-06-14T02:05:23.822Z,94397.91
2018-06-14T02:07:54.230Z,94403.08
2018-06-14T02:10:24.568Z,94404.50
2018-06-14T02:12:54.874Z,94387.59
2018-06-14T02:15:24.861Z,94388.52
2018-06-14T02:17:54.617Z,94395.56
2018-06-14T02:20:24.309Z,94398.15
2018-06-14T02:22:54.077Z,94415.94
2018-06-14T02:25:24.194Z,94416.59
2018-06-14T02:27:53.945Z,94422.70
2018-06-14T02:30:23.706Z,94422.24
2018-06-14T02:32:53.506Z,94422.57
2018-06-14T02:35:23.345Z,94426.73
2018-06-14T02:37:53.088Z,94427.16
2018-06-14T02:40:23.531Z,94423.55
2018-06-14T02:42:53.980Z,94430.53
2018-06-14T02:45:24.537Z,94429.59
2018-06-14T02:47:55.058Z,94428.80
2018-06-14T02:50:25.673Z,94428.23
2018-06-14T02:52:56.253Z,94418.75
2018-06-14T02:55:26.788Z,94406.61
2018-06-14T02:57:57.188Z,94408.66
2018-06-14T03:00:27.393Z,94407.65
2018-06-14T03:02:58.232Z,94403.49
2018-06-14T03:05:28.650Z,94402.40
2018-06-14T03:07:59.229Z,94399.98
2018-06-14T03:10:29.863Z,94390.20
2018-06-14T03:13:01.091Z,94391.19
2018-06-14T03:15:31.458Z,94397.20
2018-06-14T03:18:01.605Z,94406.77
2018-06-14T03:20:32.110Z,94410.08
2018-06-14T03:23:03.282Z,94404.11
2018-06-14T03:25:33.369Z,94411.84
2018-06-14T03:28:03.892Z,94416.97
2018-06-14T03:30:34.356Z,94424.78
2018-06-14T03:33:05.075Z,94427.59
2018-06-14T03:35:35.479Z,94431.49
2018-06-14T03:38:05.911Z,94426.61
2018-06-14T03:40:36.151Z,94428.53
2018-06-14T03:43:07.544Z,94432.64
2018-06-14T03:45:38.174Z,94432.45
2018-06-14T03:48:08.652Z,94430.29
2018-06-14T03:50:39.250Z,94433.91
2018-06-14T03:53:10.073Z,94424.13
2018-06-14T03:55:41.283Z,94423.87
2018-06-14T03:58:13.482Z,94428.47
2018-06-14T04:00:43.923Z,94418.34
2018-06-14T04:03:14.751Z,94412.34
2018-06-14T04:05:45.214Z,94413.97
2018-06-14T04:08:15.706Z,94414.27
2018-06-14T04:10:46.139Z,94415.30
2018-06-14T04:13:16.390Z,94415.88
2018-06-14T04:15:46.993Z,94420.30
2018-06-14T04:18:17.464Z,94418.17
2018-06-14T04:20:48.034Z,94418.00
2018-06-14T04:23:18.781Z,94421.58
2018-06-14T04:25:49.098Z,94425.75
2018-06-14T04:28:19.463Z,94427.88
2018-06-14T04:30:49.992Z,94425.05
2018-06-14T04:33:21.196Z,94430.58
2018-06-14T04:35:51.659Z,94437.02
2018-06-14T04:38:21.354Z,94434.96
2018-06-14T04:40:51.130Z,94439.03
2018-06-14T04:43:21.245Z,94441.42
2018-06-14T04:45:51.208Z,94443.75
2018-06-14T04:48:21.033Z,94440.54
2018-06-14T04:50:50.795Z,94444.15
2018-06-14T04:53:20.574Z,94434.83
2018-06-14T04:55:50.813Z,94433.95
2018-06-14T04:58:20.613Z,94427.36
2018-06-14T05:00:50.464Z,94424.61
2018-06-14T05:03:20.357Z,94432.14
2018-06-14T05:05:50.142Z,94434.98
2018-06-14T05:08:24.452Z,94437.49
2018-06-14T05:10:55.464Z,94435.56
2018-06-14T05:13:25.318Z,94428.17
2018-06-14T05:15:55.457Z,94428.24
2018-06-14T05:18:25.828Z,94432.16
2018-06-14T05:20:55.560Z,94433.11
2018-06-14T05:23:25.266Z,94427.65
2018-06-14T05:25:55.118Z,94428.81
2018-06-14T05:31:21.247Z,94427.69
2018-06-14T05:33:51.900Z,94426.22
2018-06-14T05:36:22.634Z,94424.52
2018-06-14T05:38:53.679Z,94426.95
2018-06-14T05:41:24.216Z,94432.82
2018-06-14T05:43:54.939Z,94434.12
2018-06-14T05:46:25.438Z,94417.95
2018-06-14T05:48:56.819Z,94412.86
2018-06-14T05:51:27.332Z,94413.05
2018-06-14T05:53:57.940Z,94413.45
2018-06-14T05:56:28.401Z,94419.21
2018-06-14T05:58:58.745Z,94421.05
2018-06-14T06:01:29.032Z,94416.52
2018-06-14T06:03:59.221Z,94417.59
2018-06-14T06:06:29.750Z,94413.63
2018-06-14T06:09:00.574Z,94408.13
2018-06-14T06:11:30.969Z,94407.89
2018-06-14T06:14:01.359Z,94396.61
2018-06-14T06:16:31.878Z,94394.54
2018-06-14T06:19:03.435Z,94395.88
2018-06-14T06:21:34.074Z,94398.70
2018-06-14T06:24:04.816Z,94386.50
2018-06-14T06:26:35.630Z,94380.55
2018-06-14T06:29:06.521Z,94382.55
2018-06-14T06:31:36.980Z,94392.35
2018-06-14T06:34:07.705Z,94386.01
2018-06-14T06:36:38.356Z,94385.64
2018-06-14T06:39:11.432Z,94393.13
2018-06-14T06:41:41.780Z,94386.92
2018-06-14T06:44:12.272Z,94382.67
2018-06-14T06:46:42.545Z,94386.16
2018-06-14T06:49:13.195Z,94390.03
2018-06-14T06:51:43.816Z,94392.63
2018-06-14T06:54:14.357Z,94395.52
2018-06-14T06:56:44.960Z,94391.73
2018-06-14T06:59:15.952Z,94398.63
2018-06-14T07:01:46.423Z,94398.84
2018-06-14T07:04:16.916Z,94396.92
2018-06-14T07:06:47.652Z,94400.39
2018-06-14T07:09:18.351Z,94395.95
2018-06-14T07:11:49.000Z,94392.14
2018-06-14T07:14:19.560Z,94395.76
2018-06-14T07:16:50.274Z,94395.36
2018-06-14T07:19:21.219Z,94398.19
2018-06-14T07:21:51.737Z,94394.08
2018-06-14T07:24:22.348Z,94386.01
2018-06-14T07:26:52.758Z,94387.23
2018-06-14T07:29:24.822Z,94381.97
2018-06-14T07:31:55.470Z,94383.31
2018-06-14T07:34:25.768Z,94385.95
2018-06-14T07:36:55.910Z,94383.86
2018-06-14T07:39:26.632Z,94382.01
2018-06-14T07:41:57.126Z,94389.71
2018-06-14T07:44:27.374Z,94389.25
2018-06-14T07:46:57.909Z,94390.78
2018-06-14T07:49:28.972Z,94396.14
2018-06-14T07:51:59.553Z,94395.19
2018-06-14T07:54:29.931Z,94400.77
2018-06-14T07:57:00.408Z,94402.56
2018-06-14T07:59:31.506Z,94410.88
2018-06-14T08:02:01.776Z,94407.97
2018-06-14T08:04:32.407Z,94404.88
2018-06-14T08:07:02.994Z,94414.02
2018-06-14T08:09:33.821Z,94411.27
2018-06-14T08:12:04.485Z,94412.64
2018-06-14T08:14:35.049Z,94415.88
2018-06-14T08:17:05.372Z,94414.70
2018-06-14T08:19:36.366Z,94415.19
2018-06-14T08:22:07.033Z,94418.97
2018-06-14T08:24:37.501Z,94425.16
2018-06-14T08:27:08.143Z,94423.30
2018-06-14T08:29:43.983Z,94425.03
2018-06-14T08:32:14.418Z,94410.87
2018-06-14T08:34:44.857Z,94409.58
2018-06-14T08:37:15.371Z,94410.53
2018-06-14T08:39:48.164Z,94407.48
2018-06-14T08:42:18.582Z,94403.91
2018-06-14T08:44:49.306Z,94403.56
2018-06-14T08:47:19.570Z,94406.89
2018-06-14T08:49:51.233Z,94400.48
2018-06-14T08:52:21.646Z,94398.69
2018-06-14T08:54:52.285Z,94397.83
2018-06-14T08:57:22.477Z,94403.95
2018-06-14T08:59:53.653Z,94400.92
2018-06-14T09:02:23.971Z,94399.25
2018-06-14T09:04:54.142Z,94396.45
2018-06-14T09:07:24.691Z,94394.70
2018-06-14T09:09:55.129Z,94387.91
2018-06-14T09:12:25.712Z,94389.63
2018-06-14T09:14:56.422Z,94386.64
2018-06-14T09:17:26.737Z,94380.86
2018-06-14T09:19:57.490Z,94380.88
2018-06-14T09:22:28.689Z,94372.98
2018-06-14T09:24:59.084Z,94375.92
2018-06-14T09:27:29.464Z,94373.44
2018-06-14T09:31:03.528Z,94362.64
2018-06-14T09:33:34.051Z,94373.47
2018-06-14T09:36:04.469Z,94361.64
2018-06-14T09:38:34.828Z,94360.22
2018-06-14T09:41:05.398Z,94362.37
2018-06-14T09:43:35.909Z,94364.12
2018-06-14T09:46:06.343Z,94361.70
2018-06-14T09:48:37.034Z,94353.55
2018-06-14T09:51:07.678Z,94345.91
2018-06-14T09:53:37.511Z,94346.95
2018-06-14T09:56:07.329Z,94343.00
2018-06-14T09:58:37.279Z,94349.34
2018-06-14T10:01:06.957Z,94341.82
2018-06-14T10:03:36.789Z,94337.08
2018-06-14T10:06:07.172Z,94345.63
2018-06-14T10:08:37.684Z,94337.30
2018-06-14T10:11:08.735Z,94338.25
2018-06-14T10:13:39.387Z,94337.87
2018-06-14T10:16:09.922Z,94336.48
2018-06-14T10:18:39.954Z,94328.55
2018-06-14T10:21:09.756Z,94310.81
2018-06-14T10:23:40.082Z,94321.46
2018-06-14T10:26:09.994Z,94313.37
2018-06-14T10:28:39.809Z,94321.66
2018-06-14T10:31:10.062Z,94331.62
2018-06-14T10:33:40.589Z,94308.84
2018-06-14T10:36:10.945Z,94305.56
2018-06-14T10:38:42.415Z,94309.39
2018-06-14T10:41:13.046Z,94303.95
2018-06-14T10:43:42.766Z,94309.91
2018-06-14T10:46:12.503Z,94308.72
2018-06-14T10:48:43.365Z,94299.83
2018-06-14T10:51:13.932Z,94304.34
2018-06-14T10:53:44.406Z,94285.84
2018-06-14T10:56:14.993Z,94281.78
2018-06-14T10:58:46.291Z,94270.00
2018-06-14T11:01:16.243Z,94275.05
2018-06-14T11:03:46.571Z,94276.82
2018-06-14T11:06:17.300Z,94274.34
2018-06-14T11:08:48.586Z,94279.69
2018-06-14T11:11:18.819Z,94278.09
2018-06-14T11:13:49.395Z,94261.52
2018-06-14T11:16:19.977Z,94254.81
2018-06-14T11:18:51.459Z,94257.97
2018-06-14T11:21:21.793Z,94254.58
2018-06-14T11:23:52.174Z,94249.88
2018-06-14T11:26:22.530Z,94244.77
2018-06-14T11:28:52.780Z,94254.30
2018-06-14T11:31:23.304Z,94249.72
2018-06-14T11:33:54.329Z,94252.05
2018-06-14T11:36:24.765Z,94252.56
2018-06-14T11:38:55.766Z,94252.69
2018-06-14T11:41:26.126Z,94251.35
2018-06-14T11:43:56.563Z,94252.50
2018-06-14T11:46:26.840Z,94254.94
2018-06-14T11:48:58.536Z,94250.01
2018-06-14T11:51:29.018Z,94247.41
2018-06-14T11:53:59.795Z,94245.81
2018-06-14T11:56:30.162Z,94246.09
2018-06-14T11:59:00.977Z,94249.53
2018-06-14T12:01:31.547Z,94242.52
2018-06-14T12:04:02.110Z,94241.80
2018-06-14T12:06:32.071Z,94244.67
2018-06-14T12:09:03.722Z,94252.16
2018-06-14T12:11:34.411Z,94248.25
2018-06-14T12:14:04.625Z,94251.33
2018-06-14T12:16:34.911Z,94244.49
2018-06-14T12:19:05.260Z,94253.81
2018-06-14T12:21:35.718Z,94257.25
2018-06-14T12:24:06.291Z,94261.97
2018-06-14T12:26:37.022Z,94253.53
2018-06-14T12:29:08.186Z,94255.48
2018-06-14T12:31:39.017Z,94255.17
2018-06-14T12:34:09.576Z,94249.73
2018-06-14T12:36:40.184Z,94250.56
2018-06-14T12:39:11.306Z,94241.39
2018-06-14T12:41:41.779Z,94242.38
2018-06-14T12:44:12.072Z,94246.74
2018-06-14T12:46:42.557Z,94251.16
2018-06-14T12:49:13.780Z,94245.49
2018-06-14T12:51:44.294Z,94251.72
2018-06-14T12:54:14.925Z,94246.37
2018-06-14T12:56:45.470Z,94246.05
2018-06-14T12:59:16.486Z,94240.68
2018-06-14T13:01:46.670Z,94248.19
2018-06-14T13:04:17.303Z,94235.62
2018-06-14T13:06:47.758Z,94241.16
2018-06-14T13:09:19.081Z,94241.00
2018-06-14T13:11:49.949Z,94235.05
2018-06-14T13:14:20.605Z,94234.66
2018-06-14T13:16:51.093Z,94229.53
2018-06-14T13:19:22.258Z,94218.99
2018-06-14T13:21:52.657Z,94213.98
2018-06-14T13:24:22.928Z,94215.03
2018-06-14T13:26:53.349Z,94206.34
2018-06-14T13:29:24.161Z,94208.03
2018-06-14T13:31:55.149Z,94204.54
2018-06-14T13:34:25.381Z,94199.96
2018-06-14T13:36:55.827Z,94201.35
2018-06-14T13:39:26.742Z,94204.84
2018-06-14T13:41:56.469Z,94214.63
2018-06-14T13:44:27.233Z,94213.61
2018-06-14T13:46:57.363Z,94215.47
2018-06-14T13:49:28.150Z,94213.45
2018-06-14T13:51:58.864Z,94209.95
2018-06-14T13:54:29.246Z,94206.79
2018-06-14T13:56:59.540Z,94220.72
2018-06-14T13:59:29.947Z,94228.70
2018-06-14T14:02:00.432Z,94233.22
2018-06-14T14:04:30.736Z,94227.17
2018-06-14T14:07:05.194Z,94226.66
2018-06-14T14:09:36.811Z,94234.23
2018-06-14T14:12:07.082Z,94236.47
2018-06-14T14:14:37.650Z,94245.44
2018-06-14T14:17:08.365Z,94237.80
2018-06-14T14:19:39.633Z,94236.28
2018-06-14T14:22:09.916Z,94243.50
2018-06-14T14:24:40.298Z,94241.48
2018-06-14T14:27:10.519Z,94240.88
2018-06-14T14:29:42.240Z,94236.57
2018-06-14T14:32:13.100Z,94010.67
2018-06-14T14:34:43.697Z,94234.61
2018-06-14T14:37:14.272Z,94235.48
2018-06-14T14:39:44.741Z,94232.91
2018-06-14T14:42:15.320Z,94232.08
2018-06-14T14:44:45.744Z,94236.78
2018-06-14T14:47:16.262Z,94245.87
2018-06-14T14:49:46.992Z,94256.95
2018-06-14T14:52:17.389Z,94263.77
2018-06-14T14:54:47.936Z,94274.40
2018-06-14T14:57:18.565Z,94275.94
2018-06-14T14:59:49.634Z,94272.28
2018-06-14T15:02:19.863Z,94274.32
2018-06-14T15:04:50.673Z,94275.47
2018-06-14T15:07:21.220Z,94272.20
2018-06-14T15:09:52.271Z,94268.94
2018-06-14T15:12:22.118Z,94273.22
2018-06-14T15:14:51.801Z,94276.74
2018-06-14T15:17:21.475Z,94277.17
2018-06-14T15:19:51.852Z,94286.87
2018-06-14T15:22:21.915Z,94293.13
2018-06-14T15:24:52.462Z,94295.66
2018-06-14T15:27:22.292Z,94303.00
2018-06-14T15:29:52.825Z,94298.94
2018-06-14T15:32:22.878Z,94288.48
2018-06-14T15:34:52.686Z,94298.19
2018-06-14T15:37:22.518Z,94297.05
2018-06-14T15:39:52.309Z,94291.83
2018-06-14T15:42:22.078Z,94300.66
2018-06-14T15:44:51.672Z,94300.08
2018-06-14T15:47:21.341Z,94298.47
2018-06-14T15:49:51.092Z,94300.13
2018-06-14T15:52:20.722Z,94282.38
2018-06-14T15:55:00.975Z,94275.26
2018-06-14T15:57:30.790Z,94276.69
2018-06-14T16:00:01.733Z,94285.69
2018-06-14T16:02:31.402Z,94289.59
2018-06-14T16:05:01.135Z,94293.59
2018-06-14T16:07:30.819Z,94293.79
2018-06-14T16:10:00.629Z,94286.83
2018-06-14T16:12:30.240Z,94274.64
2018-06-14T16:15:00.079Z,94270.91
2018-06-14T16:17:29.972Z,94262.67
2018-06-14T16:19:59.776Z,94270.52
2018-06-14T16:22:29.543Z,94261.28
2018-06-14T16:24:59.270Z,94262.68
2018-06-14T16:27:29.276Z,94270.74
2018-06-14T16:29:59.005Z,94270.37
2018-06-14T16:32:29.108Z,94271.48
2018-06-14T16:34:58.802Z,94276.47
2018-06-14T16:37:28.562Z,94272.92
2018-06-14T16:39:58.205Z,94267.48
2018-06-14T16:42:27.985Z,94277.48
2018-06-14T16:44:57.749Z,94279.09
2018-06-14T16:47:27.418Z,94278.51
2018-06-14T16:49:57.045Z,94282.64
2018-06-14T16:52:26.750Z,94286.98
2018-06-14T16:54:56.582Z,94286.34
2018-06-14T16:57:26.451Z,94297.89
2018-06-14T16:59:56.188Z,94304.02
2018-06-14T17:02:25.983Z,94308.55
2018-06-14T17:04:55.637Z,94315.89
2018-06-14T17:07:25.577Z,94319.46
2018-06-14T17:09:55.378Z,94316.59
2018-06-14T17:12:25.113Z,94320.27
2018-06-14T17:14:54.964Z,94321.63
2018-06-14T17:17:24.795Z,94314.59
2018-06-14T17:19:54.521Z,94325.32
2018-06-14T17:22:24.792Z,94328.62
2018-06-14T17:24:55.282Z,94329.53
2018-06-14T17:27:25.515Z,94326.11
2018-06-14T17:29:57.157Z,94332.86
2018-06-14T17:32:27.859Z,94338.58
2018-06-14T17:34:58.862Z,94336.07
2018-06-14T17:37:29.557Z,94342.55
2018-06-14T17:40:00.343Z,94350.20
2018-06-14T17:42:30.672Z,94355.09
2018-06-14T17:45:01.103Z,94357.09
2018-06-14T17:47:31.796Z,94363.91
2018-06-14T17:50:02.277Z,94363.84
2018-06-14T17:52:32.930Z,94366.69
2018-06-14T17:55:03.672Z,94367.09
2018-06-14T17:57:34.105Z,94378.83
2018-06-14T18:00:05.769Z,94372.42
2018-06-14T18:02:36.575Z,94367.00
2018-06-14T18:05:07.486Z,94371.27
2018-06-14T18:07:38.234Z,94374.88
2018-06-14T18:10:08.784Z,94381.50
2018-06-14T18:12:39.158Z,94387.95
2018-06-14T18:15:09.671Z,94409.84
2018-06-14T18:17:40.107Z,94397.58
2018-06-14T18:20:11.887Z,94398.96
2018-06-14T18:22:42.506Z,94398.62
2018-06-14T18:25:13.246Z,94405.16
2018-06-14T18:27:43.857Z,94400.39
2018-06-14T18:30:15.571Z,94400.33
2018-06-14T18:32:46.024Z,94400.36
2018-06-14T18:35:17.057Z,94400.70
2018-06-14T18:37:47.962Z,94404.20
2018-06-14T18:40:18.774Z,94400.02
2018-06-14T18:42:49.460Z,94403.42
2018-06-14T18:45:19.803Z,94402.19
2018-06-14T18:47:50.293Z,94410.83
2018-06-14T18:50:21.080Z,94180.77
2018-06-14T18:52:52.329Z,94424.22
2018-06-14T18:55:22.966Z,94423.94
2018-06-14T18:57:53.410Z,94424.50
2018-06-14T19:00:24.216Z,94419.70
2018-06-14T19:02:54.953Z,94424.21
2018-06-14T19:05:25.744Z,94425.92
2018-06-14T19:07:56.370Z,94427.78
2018-06-14T19:10:26.861Z,94430.97
2018-06-14T19:12:57.459Z,94433.73
2018-06-14T19:15:27.902Z,94441.67
2018-06-14T19:17:58.488Z,94438.09
2018-06-14T19:20:29.497Z,94438.28
2018-06-14T19:22:59.881Z,94448.84
2018-06-14T19:25:30.463Z,94449.80
2018-06-14T19:28:01.246Z,94459.75
2018-06-14T19:30:31.698Z,94460.58
2018-06-14T19:33:02.126Z,94463.09
2018-06-14T19:35:32.851Z,94470.20
2018-06-14T19:39:09.327Z,94466.73
2018-06-14T19:41:39.983Z,94471.23
2018-06-14T19:44:10.458Z,94471.52
2018-06-14T19:46:40.619Z,94475.05
2018-06-14T19:49:11.246Z,94470.09
2018-06-14T19:51:42.070Z,94471.62
2018-06-14T19:54:12.648Z,94473.09
2018-06-14T19:56:43.698Z,94472.83
2018-06-14T19:59:14.060Z,94475.70
2018-06-14T20:01:44.477Z,94481.73
2018-06-14T20:04:15.059Z,94481.45
2018-06-14T20:06:46.289Z,94486.02
2018-06-14T20:09:17.133Z,94489.92
2018-06-14T20:11:47.490Z,94495.20
2018-06-14T20:14:18.957Z,94490.29
2018-06-14T20:16:49.761Z,94490.91
2018-06-14T20:19:20.358Z,94492.42
2018-06-14T20:21:50.854Z,94492.42
2018-06-14T20:24:21.717Z,94494.69
2018-06-14T20:26:53.269Z,94483.79
2018-06-14T20:29:23.902Z,94479.92
2018-06-14T20:31:53.662Z,94475.47
2018-06-14T20:34:23.213Z,94475.98
2018-06-14T20:36:53.715Z,94472.70
2018-06-14T20:39:23.580Z,94474.44
2018-06-14T20:41:53.361Z,94471.16
2018-06-14T20:44:23.165Z,94465.43
2018-06-14T20:46:52.898Z,94468.30
2018-06-14T20:49:22.618Z,94469.72
2018-06-14T20:51:52.443Z,94469.55
2018-06-14T20:54:22.134Z,94461.22
2018-06-14T20:56:51.813Z,94456.22
2018-06-14T20:59:21.533Z,94453.67
2018-06-14T21:01:51.332Z,94453.69
2018-06-14T21:04:21.046Z,94449.06
2018-06-14T21:06:50.899Z,94444.41
2018-06-14T21:09:20.684Z,94447.98
2018-06-14T21:11:50.456Z,94448.41
2018-06-14T21:14:20.247Z,94447.73
2018-06-14T21:16:49.932Z,94452.19
2018-06-14T21:19:19.711Z,94450.73
2018-06-14T21:21:49.479Z,94452.30
2018-06-14T21:24:19.131Z,94452.78
2018-06-14T21:26:48.917Z,94455.49
2018-06-14T21:29:18.630Z,94460.56
2018-06-14T21:31:48.369Z,94462.59
2018-06-14T21:34:18.120Z,94458.55
2018-06-14T21:36:48.406Z,94462.23
2018-06-14T21:39:18.393Z,94452.91
2018-06-14T21:41:48.226Z,94455.91
2018-06-14T21:44:18.021Z,94452.30
2018-06-14T21:46:47.841Z,94454.42
2018-06-14T21:49:17.559Z,94461.06
2018-06-14T21:51:47.273Z,94458.05
2018-06-14T21:54:17.082Z,94453.27
2018-06-14T21:56:46.939Z,94452.35
2018-06-14T21:59:16.689Z,94455.91
2018-06-14T22:01:46.470Z,94452.48
2018-06-14T22:04:16.235Z,94452.58
2018-06-14T22:06:45.944Z,94453.20
2018-06-14T22:09:15.652Z,94449.59
2018-06-14T22:11:45.414Z,94448.80
2018-06-14T22:14:15.183Z,94448.73
2018-06-14T22:16:44.850Z,94456.78
2018-06-14T22:19:14.557Z,94456.93
2018-06-14T22:21:44.235Z,94458.94
2018-06-14T22:24:13.682Z,94458.42
2018-06-14T22:26:43.412Z,94450.99
2018-06-14T22:29:13.135Z,94458.41
2018-06-14T22:31:42.691Z,94463.42
2018-06-14T22:34:22.948Z,94463.91
2018-06-14T22:36:52.768Z,94460.05
2018-06-14T22:39:22.902Z,94463.65
2018-06-14T22:41:52.725Z,94458.78
2018-06-14T22:44:22.513Z,94466.58
2018-06-14T22:46:52.323Z,94472.16
2018-06-14T22:49:22.068Z,94472.68
2018-06-14T22:53:01.554Z,94463.91
2018-06-14T22:55:31.322Z,94463.65
2018-06-14T22:58:00.892Z,94464.36
2018-06-14T23:01:44.293Z,94470.22
2018-06-14T23:04:20.309Z,94464.31
2018-06-14T23:06:50.235Z,94460.23
2018-06-14T23:10:32.702Z,94458.21
2018-06-14T23:13:02.796Z,94455.59
2018-06-14T23:15:33.170Z,94456.76
2018-06-14T23:18:03.590Z,94459.05
2018-06-14T23:20:34.977Z,94449.83
2018-06-14T23:23:07.098Z,94448.08
2018-06-14T23:25:38.122Z,94453.98
2018-06-14T23:28:09.014Z,94460.86
2018-06-14T23:30:39.117Z,94454.64
2018-06-14T23:33:09.735Z,94452.73
2018-06-14T23:35:40.289Z,94455.27
2018-06-14T23:38:10.782Z,94452.28
2018-06-14T23:40:41.344Z,94451.38
2018-06-14T23:43:12.229Z,94452.25
2018-06-14T23:45:42.549Z,94452.73
2018-06-14T23:48:12.985Z,94458.81
2018-06-14T23:50:42.774Z,94452.90
2018-06-14T23:53:13.470Z,94464.80
2018-06-14T23:55:44.084Z,94460.10
2018-06-14T23:58:14.816Z,94456.25
